Terminal Aerodrome Forecast
Issued by NWS Buffalo, NY

Home | Current Version | Previous Version | Text Only | Print | Product List | Glossary On
Versions: 1 2 3 4 5 6 7 8 9 10 11 12 13 14 15 16 17 18 19 20 21 22 23 24 25 26 27
693
FTUS41 KBUF 191120
TAFBUF
TAF
KBUF 191120Z 1912/2012 26013G22KT 6SM -DZ BR OVC007
     FM191600 24010KT P6SM OVC007
     FM192000 24007KT P6SM OVC012
     FM200100 VRB03KT P6SM OVC012
     FM200700 09004KT 2SM BR SCT015=

USA.gov is the U.S. government's official web portal to all federal, state and local government web resources and services.